createdAt,value
2022-09-07T00:01:01.944Z,53.15
2022-09-07T00:03:30.359Z,53.27
2022-09-07T00:05:58.343Z,53.31
2022-09-07T00:08:29.736Z,53.28
2022-09-07T00:11:03.949Z,53.33
2022-09-07T00:13:34.537Z,53.45
2022-09-07T00:16:07.657Z,53.45
2022-09-07T00:18:35.851Z,53.50
2022-09-07T00:21:06.967Z,53.64
2022-09-07T00:23:36.427Z,53.70
2022-09-07T00:26:07.784Z,53.77
2022-09-07T00:28:36.660Z,53.89
2022-09-07T00:31:05.461Z,53.90
2022-09-07T00:33:33.190Z,54.00
2022-09-07T00:36:01.278Z,53.97
2022-09-07T00:38:29.191Z,54.02
2022-09-07T00:40:57.083Z,54.17
2022-09-07T00:43:40.780Z,54.13
2022-09-07T00:46:16.739Z,54.13
2022-09-07T00:48:53.546Z,54.32
2022-09-07T00:51:29.236Z,54.33
2022-09-07T00:54:01.763Z,54.39
2022-09-07T00:56:33.101Z,54.55
2022-09-07T00:59:00.966Z,54.61
2022-09-07T01:01:29.855Z,54.64
2022-09-07T01:03:59.656Z,54.78
2022-09-07T01:06:33.742Z,54.74
2022-09-07T01:09:10.520Z,54.88
2022-09-07T01:11:39.216Z,55.06
2022-09-07T01:14:09.581Z,55.04
2022-09-07T01:17:07.336Z,55.25
2022-09-07T01:20:06.084Z,55.33
2022-09-07T01:23:11.808Z,55.25
2022-09-07T01:26:00.593Z,55.43
2022-09-07T01:28:31.491Z,55.37
2022-09-07T01:31:03.763Z,55.46
2022-09-07T01:33:59.773Z,55.39
2022-09-07T01:36:27.748Z,55.51
2022-09-07T01:39:00.537Z,55.64
2022-09-07T01:41:43.635Z,55.61
2022-09-07T01:44:32.409Z,55.85
2022-09-07T01:47:21.682Z,55.92
2022-09-07T01:49:56.670Z,56.02
2022-09-07T01:52:42.879Z,56.09
2022-09-07T01:55:18.886Z,56.07
2022-09-07T01:57:55.646Z,56.22
2022-09-07T02:00:23.662Z,56.20
2022-09-07T02:03:15.130Z,56.31
2022-09-07T02:06:07.673Z,56.39
2022-09-07T02:08:47.848Z,56.37
2022-09-07T02:11:23.756Z,56.29
2022-09-07T02:13:51.358Z,56.34
2022-09-07T02:16:27.172Z,56.42
2022-09-07T02:18:57.170Z,56.43
2022-09-07T02:21:31.606Z,56.49
2022-09-07T02:24:41.202Z,56.53
2022-09-07T02:27:14.339Z,56.59
2022-09-07T02:29:43.589Z,56.58
2022-09-07T02:32:11.708Z,56.64
2022-09-07T02:34:39.693Z,56.62
2022-09-07T02:37:09.142Z,56.70
2022-09-07T02:39:37.670Z,56.85
2022-09-07T02:42:05.787Z,56.74
2022-09-07T02:44:36.228Z,56.96
2022-09-07T02:47:09.866Z,57.04
2022-09-07T02:49:51.173Z,57.08
2022-09-07T02:52:31.682Z,57.17
2022-09-07T02:55:24.485Z,57.21
2022-09-07T02:58:02.072Z,57.22
2022-09-07T03:00:34.435Z,57.32
2022-09-07T03:03:16.829Z,57.31
2022-09-07T03:06:07.909Z,57.33
2022-09-07T03:08:44.357Z,57.38
2022-09-07T03:11:13.219Z,57.39
2022-09-07T03:13:41.048Z,57.42
2022-09-07T03:16:13.822Z,57.45
2022-09-07T03:18:42.910Z,57.54
2022-09-07T03:21:11.343Z,57.50
2022-09-07T03:23:39.522Z,57.56
2022-09-07T03:26:07.401Z,57.65
2022-09-07T03:28:35.100Z,57.64
2022-09-07T03:31:03.348Z,57.57
2022-09-07T03:33:31.196Z,57.75
2022-09-07T03:36:01.339Z,57.69
2022-09-07T03:38:30.770Z,57.75
2022-09-07T03:41:03.199Z,57.75
2022-09-07T03:43:32.210Z,57.81
2022-09-07T03:46:02.497Z,57.86
2022-09-07T03:48:32.000Z,57.93
2022-09-07T03:51:01.611Z,58.01
2022-09-07T03:53:34.071Z,58.09
2022-09-07T03:56:11.519Z,58.10
2022-09-07T03:58:39.766Z,58.11
2022-09-07T04:01:10.990Z,58.11
2022-09-07T04:03:39.738Z,58.15
2022-09-07T04:06:08.100Z,58.21
2022-09-07T04:08:37.613Z,58.25
2022-09-07T04:11:06.950Z,58.30
2022-09-07T04:13:35.989Z,58.34
2022-09-07T04:16:16.572Z,58.49
2022-09-07T04:18:44.900Z,58.54
2022-09-07T04:21:13.229Z,58.51
2022-09-07T04:23:42.485Z,58.56
2022-09-07T04:26:15.292Z,58.65
2022-09-07T04:28:43.180Z,58.80
2022-09-07T04:31:12.476Z,58.99
2022-09-07T04:33:40.419Z,59.03
2022-09-07T04:36:09.456Z,58.99
2022-09-07T04:38:37.463Z,59.03
2022-09-07T04:41:10.233Z,59.14
2022-09-07T04:43:39.426Z,59.17
2022-09-07T04:46:33.864Z,59.19
2022-09-07T04:49:06.051Z,59.23
2022-09-07T04:51:34.849Z,59.26
2022-09-07T04:54:04.364Z,59.32
2022-09-07T04:56:33.628Z,59.34
2022-09-07T04:59:02.246Z,59.50
2022-09-07T05:01:30.753Z,59.46
2022-09-07T05:04:02.724Z,59.36
2022-09-07T05:06:30.868Z,59.39
2022-09-07T05:08:59.393Z,59.37
2022-09-07T05:11:29.525Z,59.47
2022-09-07T05:13:59.629Z,59.39
2022-09-07T05:16:27.853Z,59.46
2022-09-07T05:18:58.076Z,59.49
2022-09-07T05:21:28.245Z,59.19
2022-09-07T05:23:57.817Z,59.05
2022-09-07T05:26:28.084Z,59.07
2022-09-07T05:31:43.840Z,59.00
2022-09-07T05:36:59.704Z,59.26
2022-09-07T05:39:28.129Z,59.06
2022-09-07T05:41:56.033Z,58.85
2022-09-07T05:47:12.085Z,58.61
2022-09-07T05:49:40.021Z,58.22
2022-09-07T05:52:08.271Z,58.16
2022-09-07T05:54:36.253Z,58.15
2022-09-07T05:57:04.467Z,58.22
2022-09-07T05:59:32.325Z,58.01
2022-09-07T06:02:00.098Z,57.77
2022-09-07T06:04:28.101Z,57.76
2022-09-07T06:07:21.681Z,57.74
2022-09-07T06:12:31.649Z,57.18
2022-09-07T06:15:01.433Z,56.87
2022-09-07T06:17:30.041Z,56.65
2022-09-07T06:19:58.211Z,56.80
2022-09-07T06:22:30.588Z,56.57
2022-09-07T06:24:59.287Z,56.42
2022-09-07T06:27:27.391Z,56.21
2022-09-07T06:29:57.086Z,55.94
2022-09-07T06:35:08.613Z,55.53
2022-09-07T06:37:36.733Z,55.45
2022-09-07T06:40:05.160Z,55.17
2022-09-07T06:42:33.064Z,54.76
2022-09-07T06:45:00.790Z,54.68
2022-09-07T06:47:28.649Z,54.40
2022-09-07T06:49:56.549Z,54.04
2022-09-07T06:52:24.311Z,53.67
2022-09-07T06:54:59.359Z,53.48
2022-09-07T06:57:28.071Z,53.39
2022-09-07T06:59:56.008Z,53.14
2022-09-07T07:02:23.734Z,52.66
2022-09-07T07:04:51.721Z,52.36
2022-09-07T07:07:19.472Z,51.96
2022-09-07T07:09:50.102Z,51.42
2022-09-07T07:14:45.386Z,50.83
2022-09-07T07:17:13.645Z,50.36
2022-09-07T07:19:41.425Z,49.95
2022-09-07T07:22:45.458Z,49.39
2022-09-07T07:24:57.247Z,48.83
2022-09-07T07:27:25.332Z,48.61
2022-09-07T07:29:53.879Z,48.21
2022-09-07T07:32:21.793Z,47.85
2022-09-07T07:34:49.542Z,47.32
2022-09-07T07:37:17.375Z,46.89
2022-09-07T07:42:34.138Z,45.81
2022-09-07T07:47:51.552Z,44.31
2022-09-07T07:50:35.098Z,44.00
2022-09-07T07:55:51.393Z,42.87
2022-09-07T07:58:19.566Z,42.72
2022-09-07T08:00:55.854Z,42.22
2022-09-07T08:03:25.168Z,41.86
2022-09-07T08:05:54.045Z,41.30
2022-09-07T08:08:23.601Z,40.88
2022-09-07T08:10:51.413Z,40.29
2022-09-07T08:13:19.288Z,39.99
2022-09-07T08:15:47.502Z,39.26
2022-09-07T08:18:16.975Z,38.47
2022-09-07T08:20:45.357Z,38.52
2022-09-07T08:23:13.117Z,38.28
2022-09-07T08:25:49.983Z,38.01
2022-09-07T08:28:17.706Z,37.57
2022-09-07T08:30:45.449Z,37.64
2022-09-07T08:33:13.533Z,38.26
2022-09-07T08:35:41.351Z,36.08
2022-09-07T08:38:09.366Z,35.15
2022-09-07T08:40:38.231Z,33.67
2022-09-07T08:43:09.129Z,32.31
2022-09-07T08:45:41.162Z,31.08
2022-09-07T08:48:10.457Z,29.47
2022-09-07T08:50:45.150Z,27.12
2022-09-07T08:53:14.642Z,26.11
2022-09-07T08:55:51.801Z,25.45
2022-09-07T08:58:48.090Z,24.02
2022-09-07T09:01:35.953Z,22.25
2022-09-07T09:04:17.529Z,20.83
2022-09-07T09:07:08.107Z,20.40
2022-09-07T09:10:13.368Z,20.41
2022-09-07T09:13:11.966Z,20.39
2022-09-07T09:15:52.330Z,20.57
2022-09-07T09:18:25.461Z,20.85
2022-09-07T09:20:58.984Z,20.46
2022-09-07T09:23:53.872Z,20.57
2022-09-07T09:26:24.637Z,19.86
2022-09-07T09:28:52.482Z,19.11
2022-09-07T09:31:22.660Z,18.52
2022-09-07T09:34:05.456Z,17.42
2022-09-07T09:36:55.644Z,16.61
2022-09-07T09:39:34.129Z,15.28
2022-09-07T09:42:15.662Z,14.70
2022-09-07T09:44:44.137Z,13.84
2022-09-07T09:47:31.665Z,13.36
2022-09-07T09:53:29.388Z,11.40
2022-09-07T09:55:57.168Z,10.87
2022-09-07T10:01:27.105Z,9.31
2022-09-07T10:03:56.749Z,9.35
2022-09-07T10:06:26.126Z,8.61
2022-09-07T10:08:59.958Z,8.66
2022-09-07T10:12:08.230Z,8.00
2022-09-07T10:14:46.793Z,7.49
2022-09-07T10:17:32.825Z,7.33
2022-09-07T10:20:24.683Z,6.74
2022-09-07T10:22:52.267Z,6.68
2022-09-07T10:25:36.953Z,6.22
2022-09-07T10:28:11.291Z,5.97
2022-09-07T10:31:02.582Z,6.04
2022-09-07T10:37:01.504Z,5.65
2022-09-07T10:39:36.733Z,5.43
2022-09-07T10:42:25.327Z,4.96
2022-09-07T10:44:58.996Z,5.44
2022-09-07T10:48:02.067Z,5.64
2022-09-07T10:50:43.410Z,6.03
2022-09-07T10:53:43.150Z,6.01
2022-09-07T10:56:29.868Z,6.30
2022-09-07T10:59:06.249Z,6.45
2022-09-07T11:01:43.736Z,6.62
2022-09-07T11:04:20.517Z,6.74
2022-09-07T11:06:50.665Z,7.05
2022-09-07T11:09:42.520Z,7.41
2022-09-07T11:12:16.835Z,7.59
2022-09-07T11:14:51.605Z,7.71
2022-09-07T11:17:23.343Z,7.78
2022-09-07T11:20:04.869Z,8.22
2022-09-07T11:22:43.081Z,8.21
2022-09-07T11:25:35.339Z,8.21
2022-09-07T11:28:10.029Z,8.35
2022-09-07T11:30:44.482Z,8.97
2022-09-07T11:33:20.050Z,9.36
2022-09-07T11:35:54.682Z,9.76
2022-09-07T11:38:39.387Z,10.21
2022-09-07T11:41:40.259Z,10.52
2022-09-07T11:44:32.905Z,10.62
2022-09-07T11:47:10.078Z,10.59
2022-09-07T11:49:38.161Z,11.05
2022-09-07T11:52:18.309Z,11.09
2022-09-07T11:54:53.415Z,11.26
2022-09-07T11:58:13.721Z,11.86
2022-09-07T12:00:51.988Z,12.16
2022-09-07T12:03:25.736Z,12.52
2022-09-07T12:06:05.800Z,12.66
2022-09-07T12:08:58.422Z,13.15
2022-09-07T12:11:32.068Z,13.48
2022-09-07T12:14:16.186Z,13.93
2022-09-07T12:17:23.837Z,14.15
2022-09-07T12:20:10.334Z,14.67
2022-09-07T12:22:38.165Z,14.85
2022-09-07T12:25:10.134Z,14.90
2022-09-07T12:27:38.796Z,14.97
2022-09-07T12:30:06.932Z,15.28
2022-09-07T12:32:55.296Z,15.67
2022-09-07T12:35:26.651Z,15.85
2022-09-07T12:37:56.282Z,16.07
2022-09-07T12:40:36.229Z,16.42
2022-09-07T12:43:13.023Z,16.42
2022-09-07T12:45:41.681Z,16.53
2022-09-07T12:48:15.027Z,16.77
2022-09-07T12:50:56.086Z,16.99
2022-09-07T12:53:31.001Z,17.14
2022-09-07T12:56:21.721Z,17.18
2022-09-07T12:59:01.680Z,17.37
2022-09-07T13:01:34.523Z,17.57
2022-09-07T13:04:28.969Z,17.74
2022-09-07T13:07:27.492Z,18.09
2022-09-07T13:10:03.999Z,18.34
2022-09-07T13:15:32.386Z,18.80
2022-09-07T13:18:00.801Z,18.77
2022-09-07T13:20:36.141Z,18.95
2022-09-07T13:23:26.311Z,19.29
2022-09-07T13:25:55.913Z,19.68
2022-09-07T13:28:28.464Z,19.54
2022-09-07T13:30:56.433Z,19.78
2022-09-07T13:33:24.231Z,19.86
2022-09-07T13:35:54.460Z,19.68
2022-09-07T13:38:22.908Z,19.88
2022-09-07T13:40:52.357Z,20.21
2022-09-07T13:43:22.349Z,20.19
2022-09-07T13:45:52.991Z,20.09
2022-09-07T13:48:26.735Z,20.25
2022-09-07T13:51:19.317Z,20.53
2022-09-07T13:53:56.187Z,20.52
2022-09-07T13:56:41.437Z,20.45
2022-09-07T13:59:18.710Z,20.78
2022-09-07T14:01:48.141Z,20.82
2022-09-07T14:04:25.334Z,20.88
2022-09-07T14:07:03.095Z,20.97
2022-09-07T14:09:30.952Z,20.70
2022-09-07T14:11:58.642Z,20.91
2022-09-07T14:14:29.439Z,21.09
2022-09-07T14:17:00.032Z,20.95
2022-09-07T14:19:41.281Z,21.07
2022-09-07T14:22:23.269Z,21.09
2022-09-07T14:24:54.155Z,21.26
2022-09-07T14:27:26.169Z,21.45
2022-09-07T14:29:54.625Z,21.39
2022-09-07T14:32:24.328Z,21.58
2022-09-07T14:34:52.739Z,21.54
2022-09-07T14:37:22.875Z,21.47
2022-09-07T14:39:51.073Z,21.06
2022-09-07T14:42:23.626Z,20.97
2022-09-07T14:45:18.890Z,20.77
2022-09-07T14:47:49.032Z,20.37
2022-09-07T14:50:20.558Z,20.41
2022-09-07T14:55:41.423Z,20.63
2022-09-07T14:58:15.338Z,20.66
2022-09-07T15:03:39.754Z,20.88
2022-09-07T15:07:00.514Z,20.95
2022-09-07T15:08:58.328Z,21.16
2022-09-07T15:11:35.402Z,21.10
2022-09-07T15:14:10.382Z,21.33
2022-09-07T15:16:41.396Z,21.60
2022-09-07T15:19:15.571Z,21.71
2022-09-07T15:21:44.046Z,21.99
2022-09-07T15:24:12.171Z,22.09
2022-09-07T15:29:31.657Z,22.11
2022-09-07T15:32:04.449Z,22.44
2022-09-07T15:34:34.378Z,22.44
2022-09-07T15:37:03.652Z,22.62
2022-09-07T15:39:34.426Z,22.90
2022-09-07T15:42:59.649Z,23.04
2022-09-07T15:44:51.135Z,22.91
2022-09-07T15:50:07.897Z,23.24
2022-09-07T15:52:35.801Z,23.43
2022-09-07T15:55:03.672Z,23.47
2022-09-07T16:00:19.753Z,23.72
2022-09-07T16:03:05.691Z,24.06
2022-09-07T16:05:34.518Z,24.02
2022-09-07T16:10:53.881Z,24.24
2022-09-07T16:13:24.130Z,24.56
2022-09-07T16:15:52.333Z,24.38
2022-09-07T16:18:20.433Z,24.54
2022-09-07T16:20:52.683Z,24.76
2022-09-07T16:23:21.185Z,24.87
2022-09-07T16:25:59.991Z,24.98
2022-09-07T16:28:28.655Z,25.19
2022-09-07T16:30:56.855Z,25.40
2022-09-07T16:33:33.140Z,25.60
2022-09-07T16:36:09.382Z,25.94
2022-09-07T16:38:45.490Z,26.00
2022-09-07T16:41:20.020Z,26.41
2022-09-07T16:43:49.485Z,26.51
2022-09-07T16:46:19.827Z,26.81
2022-09-07T16:48:48.245Z,27.10
2022-09-07T16:51:17.628Z,27.44
2022-09-07T16:53:48.906Z,27.84
2022-09-07T16:56:22.848Z,28.23
2022-09-07T16:58:53.003Z,28.54
2022-09-07T17:01:26.519Z,29.01
2022-09-07T17:03:55.282Z,29.21
2022-09-07T17:06:25.005Z,29.57
2022-09-07T17:08:53.221Z,29.86
2022-09-07T17:11:23.300Z,30.23
2022-09-07T17:13:52.345Z,30.76
2022-09-07T17:16:25.163Z,31.01
2022-09-07T17:21:41.797Z,31.74
2022-09-07T17:24:11.201Z,32.05
2022-09-07T17:26:42.311Z,32.37
2022-09-07T17:29:13.232Z,32.74
2022-09-07T17:34:30.385Z,33.47
2022-09-07T17:37:00.608Z,33.78
2022-09-07T17:39:29.622Z,34.02
2022-09-07T17:41:58.852Z,34.31
2022-09-07T17:44:30.768Z,34.60
2022-09-07T17:47:00.128Z,34.90
2022-09-07T17:49:29.350Z,35.19
2022-09-07T17:51:58.746Z,35.42
2022-09-07T17:54:27.261Z,35.62
2022-09-07T17:56:54.960Z,36.03
2022-09-07T18:02:13.708Z,36.49
2022-09-07T18:04:42.675Z,36.66
2022-09-07T18:07:10.765Z,36.92
2022-09-07T18:09:39.051Z,37.08
2022-09-07T18:12:06.988Z,37.21
2022-09-07T18:14:34.621Z,37.50
2022-09-07T18:17:02.294Z,37.78
2022-09-07T18:19:30.640Z,38.05
2022-09-07T18:21:58.291Z,38.13
2022-09-07T18:24:27.314Z,38.28
2022-09-07T18:26:55.413Z,38.43
2022-09-07T18:29:29.329Z,38.62
2022-09-07T18:31:58.117Z,38.77
2022-09-07T18:34:26.585Z,38.80
2022-09-07T18:36:55.173Z,38.91
2022-09-07T18:39:23.118Z,39.10
2022-09-07T18:41:53.853Z,39.02
2022-09-07T18:47:17.529Z,39.07
2022-09-07T18:49:49.184Z,39.32
2022-09-07T18:55:07.237Z,39.50
2022-09-07T18:57:36.329Z,39.66
2022-09-07T19:00:07.517Z,39.82
2022-09-07T19:02:35.929Z,39.82
2022-09-07T19:07:52.117Z,40.25
2022-09-07T19:10:20.122Z,40.32
2022-09-07T19:12:48.026Z,40.48
2022-09-07T19:15:15.769Z,40.59
2022-09-07T19:17:43.864Z,40.76
2022-09-07T19:20:12.672Z,40.73
2022-09-07T19:22:42.904Z,40.87
2022-09-07T19:25:11.263Z,41.05
2022-09-07T19:27:39.454Z,41.14
2022-09-07T19:30:08.028Z,41.33
2022-09-07T19:32:35.858Z,41.56
2022-09-07T19:35:04.131Z,41.76
2022-09-07T19:37:32.735Z,41.72
2022-09-07T19:42:28.830Z,41.92
2022-09-07T19:44:56.439Z,42.16
2022-09-07T19:47:25.701Z,42.20
2022-09-07T19:49:54.162Z,42.26
2022-09-07T19:52:21.877Z,42.44
2022-09-07T19:54:49.545Z,42.51
2022-09-07T19:57:17.407Z,42.61
2022-09-07T19:59:47.298Z,42.70
2022-09-07T20:02:15.036Z,42.80
2022-09-07T20:04:42.900Z,42.77
2022-09-07T20:07:11.734Z,42.75
2022-09-07T20:09:39.605Z,42.80
2022-09-07T20:12:08.044Z,43.01
2022-09-07T20:14:35.703Z,43.05
2022-09-07T20:17:03.678Z,43.15
2022-09-07T20:19:31.410Z,43.28
2022-09-07T20:21:59.069Z,43.35
2022-09-07T20:24:27.699Z,43.53
2022-09-07T20:26:55.435Z,43.57
2022-09-07T20:29:27.641Z,43.52
2022-09-07T20:32:01.106Z,43.60
2022-09-07T20:34:29.233Z,43.55
2022-09-07T20:36:57.247Z,43.87
2022-09-07T20:39:25.646Z,43.95
2022-09-07T20:41:53.696Z,43.80
2022-09-07T20:44:21.513Z,43.78
2022-09-07T20:46:49.175Z,43.87
2022-09-07T20:49:17.206Z,44.10
2022-09-07T20:51:44.933Z,44.11
2022-09-07T20:54:12.737Z,44.12
2022-09-07T20:56:40.412Z,43.97
2022-09-07T20:59:08.515Z,44.16
2022-09-07T21:01:36.614Z,44.35
2022-09-07T21:04:06.005Z,44.40
2022-09-07T21:06:33.829Z,44.60
2022-09-07T21:09:01.622Z,44.30
2022-09-07T21:11:34.461Z,44.44
2022-09-07T21:14:07.506Z,44.45
2022-09-07T21:16:36.055Z,44.40
2022-09-07T21:19:06.874Z,44.49
2022-09-07T21:21:38.938Z,44.55
2022-09-07T21:24:19.035Z,44.57
2022-09-07T21:26:47.587Z,44.79
2022-09-07T21:29:20.955Z,44.85
2022-09-07T21:31:48.847Z,44.79
2022-09-07T21:34:17.060Z,44.97
2022-09-07T21:36:45.480Z,45.14
2022-09-07T21:39:14.870Z,45.11
2022-09-07T21:41:43.402Z,45.13
2022-09-07T21:44:13.387Z,45.21
2022-09-07T21:46:41.753Z,45.53
2022-09-07T21:49:09.722Z,45.40
2022-09-07T21:51:37.831Z,45.50
2022-09-07T21:54:06.116Z,45.60
2022-09-07T21:56:34.699Z,45.66
2022-09-07T21:59:02.905Z,45.59
2022-09-07T22:01:31.760Z,45.67
2022-09-07T22:04:01.805Z,45.70
2022-09-07T22:06:32.219Z,45.86
2022-09-07T22:09:01.392Z,45.87
2022-09-07T22:11:29.862Z,45.96
2022-09-07T22:14:03.480Z,45.84
2022-09-07T22:16:33.073Z,45.88
2022-09-07T22:19:01.060Z,46.01
2022-09-07T22:21:29.919Z,45.99
2022-09-07T22:24:03.604Z,46.01
2022-09-07T22:26:33.813Z,46.08
2022-09-07T22:29:01.733Z,46.05
2022-09-07T22:31:34.469Z,46.21
2022-09-07T22:34:04.221Z,46.26
2022-09-07T22:36:40.789Z,46.09
2022-09-07T22:39:12.296Z,46.33
2022-09-07T22:41:40.362Z,46.35
2022-09-07T22:44:11.287Z,46.52
2022-09-07T22:46:41.566Z,46.49
2022-09-07T22:49:11.751Z,46.57
2022-09-07T22:51:39.413Z,46.48
2022-09-07T22:54:08.026Z,46.60
2022-09-07T22:56:36.607Z,46.58
2022-09-07T22:59:07.511Z,46.81
2022-09-07T23:01:35.988Z,46.97
2022-09-07T23:04:04.470Z,46.97
2022-09-07T23:06:37.359Z,47.15
2022-09-07T23:09:12.742Z,47.03
2022-09-07T23:11:40.554Z,47.25
2022-09-07T23:14:12.890Z,47.35
2022-09-07T23:16:40.660Z,47.52
2022-09-07T23:19:09.969Z,47.64
2022-09-07T23:21:39.736Z,47.74
2022-09-07T23:24:08.551Z,47.85
2022-09-07T23:26:36.175Z,47.79
2022-09-07T23:29:04.900Z,47.69
2022-09-07T23:31:34.420Z,47.94
2022-09-07T23:34:03.010Z,47.98
2022-09-07T23:36:30.812Z,48.30
2022-09-07T23:39:00.147Z,48.41
2022-09-07T23:41:28.497Z,48.50
2022-09-07T23:43:57.013Z,48.36
2022-09-07T23:46:25.010Z,48.47
2022-09-07T23:48:52.951Z,48.63
2022-09-07T23:51:24.103Z,48.70
2022-09-07T23:53:53.509Z,48.75
2022-09-07T23:56:24.713Z,48.88
2022-09-07T23:58:52.428Z,48.90
